Meteosat more information blitzortung!


Radar lluvias  rain snow radar


Visita nuestra red de sitios de meteo:

Altres Coses Documentation for the template used

Template model
MeteotemplateWebsite of another weatherstation



No requiere especial atención con respecto al clima.    No hay Alarmas

Informes METAR proximidad

   
LEDA - Lleida/Alguaire
Actualización: 24-06-2018 08:00
Nubes dispersas  
Nubes dispersas  
   Viento: E 11.1 km/h
Viento: E 11.1 km/h
Temperatura: 20°C
Punto de rocío: 16°C
Humedad: 78%
Baromètro: 1018 hPa
Nublado: Nubes dispersas
Visibilidad: More than 10 km
detalles de la nube: Nubes dispersas 2500 ft
LEDA 240600Z AUTO 09006KT 9999 FEW025/// 20/16 Q1018
LEXJ - Santander
Actualización: 24-06-2018 08:30
Despejado  
Despejado  
   Viento: varía 3.7 km/h
Viento: varía 3.7 km/h
Temperatura: 17°C
Punto de rocío: 14°C
Humedad: 83%
Baromètro: 1017 hPa
Visibilidad: More than 10 km
detalles de la nube: Despejado
LEXJ 240630Z VRB02KT CAVOK 17/14 Q1017
LEBB - Bilbao
Actualización: 24-06-2018 08:30
Despejado  
Despejado  
   Viento: E 5.6 km/h
Viento: E 5.6 km/h
Temperatura: 16°C
Punto de rocío: 13°C
Humedad: 83%
Baromètro: 1019 hPa
Visibilidad: More than 10 km
detalles de la nube: Despejado
LEBB 240630Z 08003KT 050V120 CAVOK 16/13 Q1019 NOSIG
LEBL - Barcelona
Actualización: 24-06-2018 08:30
Nubes dispersas  
Nubes dispersas  
   Viento: varía 3.7 km/h
Viento: varía 3.7 km/h
Temperatura: 23°C
Punto de rocío: 16°C
Humedad: 65%
Baromètro: 1018 hPa
Nublado: Nubes dispersas
Visibilidad: More than 10 km
detalles de la nube: Nubes dispersas 3000 ft
LEBL 240630Z VRB02KT 9999 FEW030 23/16 Q1018 NOSIG
LEMD - Madrid
Actualización: 24-06-2018 08:30
Despejado  
Despejado  
   Viento: varía 3.7 km/h
Viento: varía 3.7 km/h
Temperatura: 21°C
Punto de rocío: 13°C
Humedad: 60%
Baromètro: 1018 hPa
Visibilidad: More than 10 km
detalles de la nube: Despejado
LEMD 240630Z VRB02KT CAVOK 21/13 Q1018 NOSIG
 

Guión original por  Saratoga-weather.org Adaptado para la plantilla por  Weerstation Leuven

Usted encontrará nuestra información del tiempo también en:

Weather Underground

Iberian Peninsula Weather Network